createdAt,value
2023-03-27T00:01:03.040Z,0.50
2023-03-27T00:03:30.447Z,0.20
2023-03-27T00:06:00.884Z,0.38
2023-03-27T00:08:28.673Z,0.20
2023-03-27T00:10:55.804Z,0.20
2023-03-27T00:13:22.637Z,0.20
2023-03-27T00:15:49.586Z,0.20
2023-03-27T00:18:17.338Z,0.20
2023-03-27T00:20:44.204Z,0.40
2023-03-27T00:23:10.819Z,0.43
2023-03-27T00:25:37.486Z,0.10
2023-03-27T00:28:04.191Z,0.20
2023-03-27T00:30:31.624Z,0.25
2023-03-27T00:32:58.928Z,0.20
2023-03-27T00:35:28.332Z,0.10
2023-03-27T00:37:55.803Z,0.10
2023-03-27T00:40:22.524Z,0.20
2023-03-27T00:42:51.148Z,0.25
2023-03-27T00:45:23.527Z,0.08
2023-03-27T00:47:54.919Z,0.10
2023-03-27T00:50:26.328Z,0.20
2023-03-27T00:52:58.408Z,0.30
2023-03-27T00:55:31.418Z,0.20
2023-03-27T00:58:03.596Z,0.20
2023-03-27T01:00:32.576Z,0.20
2023-03-27T01:03:03.890Z,0.10
2023-03-27T01:05:31.276Z,0.30
2023-03-27T01:08:01.267Z,0.10
2023-03-27T01:10:42.847Z,0.43
2023-03-27T01:13:45.454Z,0.10
2023-03-27T01:16:41.800Z,0.20
2023-03-27T01:19:33.119Z,0.30
2023-03-27T01:22:22.971Z,0.63
2023-03-27T01:25:14.536Z,0.20
2023-03-27T01:27:50.080Z,0.43
2023-03-27T01:30:34.519Z,0.10
2023-03-27T01:33:31.737Z,0.20
2023-03-27T01:36:20.637Z,0.05
2023-03-27T01:39:13.219Z,0.20
2023-03-27T01:41:52.104Z,0.20
2023-03-27T01:44:36.495Z,0.20
2023-03-27T01:47:25.029Z,0.40
2023-03-27T01:50:14.897Z,0.20
2023-03-27T01:52:45.288Z,0.20
2023-03-27T01:55:18.822Z,0.17
2023-03-27T01:57:53.525Z,0.05
2023-03-27T02:00:23.642Z,0.35
2023-03-27T02:02:56.210Z,0.30
2023-03-27T02:05:33.280Z,0.60
2023-03-27T02:08:10.204Z,0.90
2023-03-27T02:10:41.544Z,0.22
2023-03-27T02:13:17.394Z,0.30
2023-03-27T02:15:47.091Z,0.25
2023-03-27T02:18:19.318Z,0.20
2023-03-27T02:20:46.241Z,0.13
2023-03-27T02:23:12.920Z,0.20
2023-03-27T02:25:42.057Z,0.28
2023-03-27T02:28:23.886Z,0.30
2023-03-27T02:31:32.522Z,0.40
2023-03-27T02:34:27.055Z,0.22
2023-03-27T02:37:20.068Z,0.70
2023-03-27T02:40:48.867Z,0.30
2023-03-27T02:43:56.190Z,0.20
2023-03-27T02:46:56.366Z,0.30
2023-03-27T02:49:32.990Z,0.30
2023-03-27T02:52:10.135Z,0.20
2023-03-27T02:54:42.035Z,0.20
2023-03-27T02:57:13.620Z,0.15
2023-03-27T03:00:03.619Z,0.20
2023-03-27T03:02:35.323Z,0.30
2023-03-27T03:05:08.824Z,0.20
2023-03-27T03:07:39.289Z,0.20
2023-03-27T03:10:09.911Z,0.20
2023-03-27T03:12:36.582Z,0.25
2023-03-27T03:15:03.678Z,0.20
2023-03-27T03:17:31.219Z,0.15
2023-03-27T03:19:57.909Z,0.10
2023-03-27T03:22:25.686Z,0.15
2023-03-27T03:24:53.067Z,0.20
2023-03-27T03:27:25.101Z,0.10
2023-03-27T03:30:05.518Z,0.20
2023-03-27T03:32:39.180Z,0.15
2023-03-27T03:35:06.910Z,0.20
2023-03-27T03:37:34.464Z,0.20
2023-03-27T03:40:01.166Z,0.20
2023-03-27T03:42:27.795Z,0.20
2023-03-27T03:44:54.445Z,0.20
2023-03-27T03:47:22.502Z,0.13
2023-03-27T03:49:49.742Z,0.27
2023-03-27T03:52:16.715Z,0.10
2023-03-27T03:54:44.964Z,0.20
2023-03-27T03:57:13.347Z,0.22
2023-03-27T03:59:40.378Z,0.20
2023-03-27T04:02:22.580Z,0.32
2023-03-27T04:04:49.384Z,0.28
2023-03-27T04:07:16.735Z,0.23
2023-03-27T04:09:46.129Z,0.30
2023-03-27T04:12:18.339Z,0.22
2023-03-27T04:17:44.102Z,0.10
2023-03-27T04:20:12.766Z,0.20
2023-03-27T04:22:44.427Z,0.20
2023-03-27T04:25:11.158Z,0.10
2023-03-27T04:27:37.731Z,0.20
2023-03-27T04:30:14.748Z,0.20
2023-03-27T04:33:01.722Z,0.23
2023-03-27T04:36:06.341Z,0.20
2023-03-27T04:38:52.972Z,0.40
2023-03-27T04:41:19.770Z,0.13
2023-03-27T04:43:46.431Z,0.20
2023-03-27T04:46:13.365Z,0.10
2023-03-27T04:48:41.761Z,0.30
2023-03-27T04:51:31.168Z,0.20
2023-03-27T04:53:58.104Z,0.32
2023-03-27T04:56:25.740Z,0.50
2023-03-27T04:58:55.352Z,0.40
2023-03-27T05:01:22.411Z,0.50
2023-03-27T05:04:13.524Z,0.88
2023-03-27T05:06:54.841Z,1.55
2023-03-27T05:09:22.695Z,0.95
2023-03-27T05:11:50.424Z,1.73
2023-03-27T05:14:19.775Z,1.50
2023-03-27T05:16:47.034Z,1.00
2023-03-27T05:19:13.740Z,1.13
2023-03-27T05:21:44.318Z,0.90
2023-03-27T05:24:11.468Z,1.00
2023-03-27T05:26:39.252Z,0.47
2023-03-27T05:29:06.041Z,0.75
2023-03-27T05:31:36.232Z,0.43
2023-03-27T05:34:28.876Z,0.50
2023-03-27T05:37:02.651Z,0.52
2023-03-27T05:39:29.419Z,0.55
2023-03-27T05:41:56.130Z,0.90
2023-03-27T05:44:22.948Z,0.40
2023-03-27T05:46:50.536Z,0.40
2023-03-27T05:49:23.083Z,1.48
2023-03-27T05:51:55.556Z,0.95
2023-03-27T05:54:22.264Z,1.13
2023-03-27T05:57:12.164Z,0.57
2023-03-27T05:59:40.514Z,1.67
2023-03-27T06:02:33.564Z,1.10
2023-03-27T06:05:08.184Z,1.67
2023-03-27T06:07:37.709Z,0.47
2023-03-27T06:10:07.111Z,0.70
2023-03-27T06:12:45.505Z,0.60
2023-03-27T06:15:30.197Z,0.50
2023-03-27T06:18:17.160Z,0.32
2023-03-27T06:20:44.088Z,0.65
2023-03-27T06:23:11.442Z,0.75
2023-03-27T06:25:39.102Z,0.55
2023-03-27T06:28:07.616Z,1.05
2023-03-27T06:30:40.803Z,0.38
2023-03-27T06:33:26.724Z,0.40
2023-03-27T06:35:55.130Z,0.20
2023-03-27T06:38:30.480Z,0.60
2023-03-27T06:40:57.498Z,0.70
2023-03-27T06:43:24.843Z,0.60
2023-03-27T06:46:00.692Z,0.75
2023-03-27T06:48:45.536Z,0.25
2023-03-27T06:51:12.200Z,0.40
2023-03-27T06:53:39.057Z,0.40
2023-03-27T06:56:06.451Z,0.73
2023-03-27T06:58:53.232Z,0.90
2023-03-27T07:01:21.711Z,2.35
2023-03-27T07:04:02.161Z,0.80
2023-03-27T07:06:46.226Z,0.47
2023-03-27T07:09:12.967Z,0.85
2023-03-27T07:11:39.690Z,0.98
2023-03-27T07:14:09.074Z,0.73
2023-03-27T07:16:36.076Z,0.50
2023-03-27T07:19:02.927Z,0.98
2023-03-27T07:21:32.370Z,1.00
2023-03-27T07:23:59.814Z,0.77
2023-03-27T07:26:33.581Z,0.95
2023-03-27T07:29:21.521Z,1.33
2023-03-27T07:37:15.730Z,1.05
2023-03-27T07:40:02.359Z,0.80
2023-03-27T07:42:29.249Z,1.00
2023-03-27T07:45:02.314Z,1.10
2023-03-27T07:47:30.736Z,1.10
2023-03-27T07:49:57.891Z,0.82
2023-03-27T07:52:25.196Z,0.95
2023-03-27T07:54:57.290Z,1.52
2023-03-27T07:57:31.657Z,1.77
2023-03-27T08:00:06.128Z,1.77
2023-03-27T08:03:13.247Z,2.03
2023-03-27T08:05:52.192Z,2.53
2023-03-27T08:08:19.748Z,3.03
2023-03-27T08:10:55.552Z,2.45
2023-03-27T08:13:23.656Z,2.13
2023-03-27T08:15:50.277Z,1.83
2023-03-27T08:18:24.990Z,1.77
2023-03-27T08:20:56.034Z,1.55
2023-03-27T08:23:24.732Z,2.40
2023-03-27T08:26:09.939Z,2.13
2023-03-27T08:28:44.616Z,1.48
2023-03-27T08:31:14.626Z,1.67
2023-03-27T08:33:42.916Z,1.35
2023-03-27T08:36:15.104Z,1.30
2023-03-27T08:38:43.486Z,1.90
2023-03-27T08:41:30.389Z,1.55
2023-03-27T08:44:14.241Z,1.77
2023-03-27T08:46:41.608Z,2.05
2023-03-27T08:49:15.696Z,1.45
2023-03-27T08:52:05.774Z,2.72
2023-03-27T08:54:34.872Z,1.52
2023-03-27T08:57:13.306Z,2.30
2023-03-27T09:02:15.153Z,2.72
2023-03-27T09:05:02.999Z,2.95
2023-03-27T09:10:26.177Z,1.55
2023-03-27T09:13:21.544Z,1.63
2023-03-27T09:16:00.562Z,3.17
2023-03-27T09:18:33.830Z,1.88
2023-03-27T09:21:17.891Z,2.50
2023-03-27T09:23:46.340Z,1.75
2023-03-27T09:26:36.672Z,2.38
2023-03-27T09:29:23.813Z,2.47
2023-03-27T09:32:02.625Z,1.10
2023-03-27T09:34:31.953Z,1.02
2023-03-27T09:37:00.192Z,1.48
2023-03-27T09:39:33.430Z,1.30
2023-03-27T09:42:20.079Z,1.45
2023-03-27T09:44:51.807Z,1.95
2023-03-27T09:47:37.386Z,3.20
2023-03-27T09:50:26.265Z,2.80
2023-03-27T09:53:12.178Z,2.75
2023-03-27T09:56:13.219Z,4.45
2023-03-27T09:58:47.092Z,3.60
2023-03-27T10:01:17.859Z,3.15
2023-03-27T10:03:52.339Z,2.53
2023-03-27T10:06:37.698Z,3.38
2023-03-27T10:09:29.261Z,4.65
2023-03-27T10:12:20.893Z,3.95
2023-03-27T10:14:52.581Z,3.20
2023-03-27T10:17:55.172Z,3.38
2023-03-27T10:20:22.054Z,4.10
2023-03-27T10:22:59.641Z,4.43
2023-03-27T10:25:33.806Z,4.47
2023-03-27T10:31:23.835Z,5.85
2023-03-27T10:33:55.395Z,4.10
2023-03-27T10:36:48.641Z,3.97
2023-03-27T10:39:20.069Z,4.43
2023-03-27T10:42:09.331Z,4.57
2023-03-27T10:44:40.266Z,5.50
2023-03-27T10:47:18.476Z,5.40
2023-03-27T10:49:52.255Z,4.55
2023-03-27T10:52:54.759Z,5.25
2023-03-27T10:56:14.083Z,4.28
2023-03-27T10:58:50.377Z,3.70
2023-03-27T11:01:25.911Z,4.70
2023-03-27T11:03:57.771Z,3.60
2023-03-27T11:06:29.480Z,4.15
2023-03-27T11:09:17.526Z,3.42
2023-03-27T11:12:06.023Z,4.07
2023-03-27T11:14:47.543Z,3.83
2023-03-27T11:17:24.307Z,3.30
2023-03-27T11:20:27.827Z,3.63
2023-03-27T11:23:34.058Z,3.47
2023-03-27T11:26:21.656Z,3.20
2023-03-27T11:29:08.072Z,3.17
2023-03-27T11:31:46.945Z,3.13
2023-03-27T11:34:32.081Z,3.15
2023-03-27T11:37:26.319Z,2.50
2023-03-27T11:39:58.476Z,3.33
2023-03-27T11:42:36.058Z,3.50
2023-03-27T11:45:06.880Z,3.00
2023-03-27T11:48:03.737Z,3.45
2023-03-27T11:50:47.546Z,3.20
2023-03-27T11:53:30.982Z,2.97
2023-03-27T11:57:06.252Z,2.70
2023-03-27T12:00:00.959Z,2.97
2023-03-27T12:02:45.495Z,4.35
2023-03-27T12:05:22.969Z,3.35
2023-03-27T12:08:09.836Z,1.90
2023-03-27T12:10:41.036Z,2.25
2023-03-27T12:13:49.978Z,1.55
2023-03-27T12:16:47.890Z,1.98
2023-03-27T12:19:29.671Z,2.35
2023-03-27T12:22:36.526Z,1.73
2023-03-27T12:25:29.168Z,1.80
2023-03-27T12:28:34.854Z,2.17
2023-03-27T12:31:51.247Z,1.92
2023-03-27T12:36:59.954Z,1.98
2023-03-27T12:39:28.332Z,1.85
2023-03-27T12:42:12.926Z,1.10
2023-03-27T12:45:05.350Z,1.60
2023-03-27T12:47:32.144Z,1.52
2023-03-27T12:50:18.597Z,1.30
2023-03-27T12:52:46.389Z,2.00
2023-03-27T12:55:17.877Z,1.48
2023-03-27T12:57:57.810Z,1.77
2023-03-27T13:00:53.703Z,1.13
2023-03-27T13:04:13.661Z,0.70
2023-03-27T13:09:43.679Z,0.70
2023-03-27T13:12:22.582Z,0.70
2023-03-27T13:15:27.030Z,1.20
2023-03-27T13:18:10.388Z,2.00
2023-03-27T13:20:47.834Z,1.90
2023-03-27T13:23:30.448Z,1.20
2023-03-27T13:26:34.855Z,1.70
2023-03-27T13:29:03.136Z,2.15
2023-03-27T13:31:45.693Z,1.80
2023-03-27T13:34:27.674Z,1.55
2023-03-27T13:37:07.659Z,1.30
2023-03-27T13:39:47.307Z,1.25
2023-03-27T13:42:41.132Z,0.90
2023-03-27T13:45:17.735Z,1.42
2023-03-27T13:48:24.864Z,1.45
2023-03-27T13:50:54.949Z,1.42
2023-03-27T13:53:43.023Z,1.08
2023-03-27T13:57:10.741Z,0.90
2023-03-27T14:00:01.932Z,0.90
2023-03-27T14:03:09.856Z,1.42
2023-03-27T14:06:07.027Z,1.45
2023-03-27T14:09:03.002Z,0.88
2023-03-27T14:12:13.680Z,1.00
2023-03-27T14:15:12.776Z,1.45
2023-03-27T14:18:18.460Z,2.63
2023-03-27T14:20:47.894Z,1.45
2023-03-27T14:23:20.697Z,2.72
2023-03-27T14:26:05.836Z,1.95
2023-03-27T14:28:52.303Z,1.70
2023-03-27T14:31:30.040Z,1.25
2023-03-27T14:34:18.966Z,0.77
2023-03-27T14:36:47.019Z,0.60
2023-03-27T14:39:22.758Z,1.33
2023-03-27T14:42:00.518Z,0.73
2023-03-27T14:44:32.573Z,0.57
2023-03-27T14:47:07.880Z,0.82
2023-03-27T14:49:49.304Z,0.75
2023-03-27T14:52:30.381Z,0.80
2023-03-27T14:55:17.436Z,1.40
2023-03-27T14:57:50.062Z,0.65
2023-03-27T15:00:21.551Z,0.85
2023-03-27T15:02:51.026Z,0.98
2023-03-27T15:05:20.187Z,0.75
2023-03-27T15:07:51.735Z,0.70
2023-03-27T15:10:38.219Z,0.65
2023-03-27T15:13:34.477Z,1.27
2023-03-27T15:16:02.812Z,0.70
2023-03-27T15:18:48.573Z,1.35
2023-03-27T15:21:27.353Z,0.57
2023-03-27T15:24:02.111Z,0.98
2023-03-27T15:26:33.388Z,0.85
2023-03-27T15:29:06.171Z,0.70
2023-03-27T15:31:34.716Z,0.98
2023-03-27T15:34:12.585Z,0.80
2023-03-27T15:36:40.462Z,0.88
2023-03-27T15:39:07.108Z,0.70
2023-03-27T15:41:33.729Z,0.82
2023-03-27T15:44:12.112Z,0.98
2023-03-27T15:46:48.514Z,1.23
2023-03-27T15:49:37.155Z,0.77
2023-03-27T15:52:30.792Z,1.25
2023-03-27T15:54:58.456Z,1.45
2023-03-27T15:57:27.773Z,1.30
2023-03-27T15:59:55.423Z,0.85
2023-03-27T16:02:25.241Z,0.98
2023-03-27T16:04:55.828Z,0.88
2023-03-27T16:07:29.639Z,0.73
2023-03-27T16:10:01.654Z,1.00
2023-03-27T16:12:58.590Z,1.00
2023-03-27T16:15:38.623Z,0.80
2023-03-27T16:18:23.011Z,0.80
2023-03-27T16:20:49.819Z,1.05
2023-03-27T16:23:16.422Z,1.00
2023-03-27T16:25:43.155Z,0.85
2023-03-27T16:28:10.038Z,0.60
2023-03-27T16:30:39.270Z,0.82
2023-03-27T16:33:24.800Z,0.50
2023-03-27T16:35:51.450Z,0.52
2023-03-27T16:38:18.171Z,0.65
2023-03-27T16:40:45.439Z,0.40
2023-03-27T16:43:12.054Z,0.60
2023-03-27T16:45:38.895Z,0.60
2023-03-27T16:48:05.674Z,1.10
2023-03-27T16:50:33.186Z,0.70
2023-03-27T16:52:59.748Z,1.15
2023-03-27T16:55:26.345Z,0.70
2023-03-27T16:57:52.914Z,0.70
2023-03-27T17:00:20.057Z,0.70
2023-03-27T17:02:47.655Z,0.77
2023-03-27T17:05:14.757Z,0.65
2023-03-27T17:07:41.514Z,0.95
2023-03-27T17:10:08.898Z,1.35
2023-03-27T17:12:35.551Z,1.75
2023-03-27T17:15:02.330Z,1.40
2023-03-27T17:17:29.944Z,0.90
2023-03-27T17:19:56.662Z,0.80
2023-03-27T17:22:23.303Z,1.15
2023-03-27T17:24:57.016Z,0.88
2023-03-27T17:27:24.962Z,0.88
2023-03-27T17:29:53.267Z,0.90
2023-03-27T17:32:19.999Z,0.98
2023-03-27T17:34:46.639Z,0.70
2023-03-27T17:37:13.237Z,1.10
2023-03-27T17:39:39.910Z,0.98
2023-03-27T17:42:06.498Z,1.50
2023-03-27T17:44:33.197Z,0.77
2023-03-27T17:46:59.774Z,1.02
2023-03-27T17:49:26.532Z,0.95
2023-03-27T17:51:53.098Z,1.00
2023-03-27T17:54:19.910Z,1.20
2023-03-27T17:56:46.589Z,1.15
2023-03-27T17:59:13.174Z,1.48
2023-03-27T18:01:39.777Z,0.90
2023-03-27T18:04:06.981Z,1.13
2023-03-27T18:06:33.630Z,1.10
2023-03-27T18:09:00.225Z,0.80
2023-03-27T18:11:26.763Z,1.10
2023-03-27T18:13:53.639Z,1.15
2023-03-27T18:16:20.688Z,1.20
2023-03-27T18:18:47.400Z,2.35
2023-03-27T18:21:16.111Z,1.83
2023-03-27T18:23:46.037Z,1.50
2023-03-27T18:26:14.504Z,1.92
2023-03-27T18:28:41.082Z,1.00
2023-03-27T18:31:09.976Z,1.13
2023-03-27T18:33:36.734Z,0.80
2023-03-27T18:36:04.875Z,1.00
2023-03-27T18:40:58.132Z,0.90
2023-03-27T18:43:25.134Z,1.55
2023-03-27T18:45:56.461Z,1.10
2023-03-27T18:48:23.612Z,1.10
2023-03-27T18:50:58.966Z,1.30
2023-03-27T18:53:26.122Z,1.27
2023-03-27T18:55:53.680Z,1.37
2023-03-27T18:58:23.651Z,1.48
2023-03-27T19:00:50.737Z,1.38
2023-03-27T19:03:20.330Z,1.67
2023-03-27T19:05:47.982Z,1.25
2023-03-27T19:08:15.575Z,1.50
2023-03-27T19:10:42.178Z,1.55
2023-03-27T19:13:17.505Z,1.35
2023-03-27T19:16:19.723Z,1.35
2023-03-27T19:18:55.383Z,2.00
2023-03-27T19:21:48.743Z,1.20
2023-03-27T19:24:21.168Z,1.13
2023-03-27T19:26:47.791Z,1.80
2023-03-27T19:29:14.466Z,1.70
2023-03-27T19:31:41.104Z,1.70
2023-03-27T19:34:07.886Z,1.38
2023-03-27T19:36:34.541Z,1.45
2023-03-27T19:39:01.208Z,2.22
2023-03-27T19:41:27.922Z,1.60
2023-03-27T19:43:54.498Z,1.40
2023-03-27T19:46:21.169Z,1.80
2023-03-27T19:48:51.681Z,1.73
2023-03-27T19:51:27.459Z,1.80
2023-03-27T19:53:54.328Z,2.00
2023-03-27T19:56:24.391Z,1.65
2023-03-27T19:58:51.129Z,1.90
2023-03-27T20:01:18.004Z,1.83
2023-03-27T20:03:44.852Z,1.65
2023-03-27T20:06:14.346Z,1.65
2023-03-27T20:08:42.463Z,1.67
2023-03-27T20:11:12.999Z,1.92
2023-03-27T20:13:52.986Z,2.30
2023-03-27T20:16:23.883Z,1.50
2023-03-27T20:21:17.093Z,1.88
2023-03-27T20:23:43.893Z,1.58
2023-03-27T20:26:21.815Z,1.58
2023-03-27T20:28:53.999Z,1.23
2023-03-27T20:31:20.689Z,2.28
2023-03-27T20:33:47.869Z,1.65
2023-03-27T20:36:14.833Z,1.98
2023-03-27T20:38:41.805Z,2.20
2023-03-27T20:41:08.395Z,1.50
2023-03-27T20:43:34.973Z,1.20
2023-03-27T20:46:03.537Z,2.00
2023-03-27T20:48:30.363Z,2.20
2023-03-27T20:50:56.920Z,1.92
2023-03-27T20:53:27.726Z,2.05
2023-03-27T20:56:02.977Z,1.40
2023-03-27T20:58:32.988Z,2.05
2023-03-27T21:00:59.795Z,1.75
2023-03-27T21:03:26.435Z,1.00
2023-03-27T21:05:53.069Z,1.20
2023-03-27T21:08:19.659Z,1.40
2023-03-27T21:10:54.637Z,1.50
2023-03-27T21:13:21.342Z,1.40
2023-03-27T21:15:48.216Z,1.00
2023-03-27T21:18:16.974Z,1.00
2023-03-27T21:20:43.561Z,1.20
2023-03-27T21:23:10.214Z,1.10
2023-03-27T21:25:36.849Z,1.50
2023-03-27T21:28:06.106Z,1.60
2023-03-27T21:30:46.822Z,1.73
2023-03-27T21:33:15.205Z,2.10
2023-03-27T21:35:41.922Z,1.75
2023-03-27T21:38:08.838Z,1.30
2023-03-27T21:40:38.209Z,1.55
2023-03-27T21:43:04.987Z,1.52
2023-03-27T21:45:31.693Z,1.17
2023-03-27T21:47:58.357Z,1.55
2023-03-27T21:50:25.267Z,1.27
2023-03-27T21:52:51.974Z,1.52
2023-03-27T21:55:18.604Z,1.23
2023-03-27T21:57:45.264Z,1.42
2023-03-27T22:00:12.410Z,1.83
2023-03-27T22:02:42.075Z,1.52
2023-03-27T22:05:09.043Z,1.20
2023-03-27T22:07:35.727Z,1.63
2023-03-27T22:10:02.415Z,1.60
2023-03-27T22:12:28.988Z,2.00
2023-03-27T22:14:55.529Z,2.05
2023-03-27T22:17:22.193Z,1.48
2023-03-27T22:19:48.831Z,2.08
2023-03-27T22:22:15.503Z,1.83
2023-03-27T22:24:42.155Z,3.05
2023-03-27T22:27:08.743Z,2.65
2023-03-27T22:29:35.474Z,1.55
2023-03-27T22:32:02.190Z,1.70
2023-03-27T22:34:28.779Z,2.35
2023-03-27T22:36:55.457Z,1.92
2023-03-27T22:39:22.007Z,2.10
2023-03-27T22:41:48.657Z,1.77
2023-03-27T22:44:15.368Z,2.08
2023-03-27T22:46:42.118Z,2.45
2023-03-27T22:49:08.841Z,2.15
2023-03-27T22:51:35.476Z,2.15
2023-03-27T22:54:02.412Z,1.67
2023-03-27T22:56:29.113Z,1.77
2023-03-27T22:58:55.752Z,1.88
2023-03-27T23:01:22.326Z,1.90
2023-03-27T23:03:49.055Z,3.80
2023-03-27T23:06:21.876Z,1.90
2023-03-27T23:08:51.960Z,1.60
2023-03-27T23:11:19.384Z,1.80
2023-03-27T23:13:46.344Z,1.90
2023-03-27T23:16:13.070Z,2.60
2023-03-27T23:18:39.934Z,2.05
2023-03-27T23:21:11.865Z,1.65
2023-03-27T23:23:39.842Z,1.85
2023-03-27T23:26:07.649Z,1.83
2023-03-27T23:28:38.377Z,2.22
2023-03-27T23:31:08.247Z,1.75
2023-03-27T23:33:37.641Z,2.33
2023-03-27T23:36:08.338Z,2.58
2023-03-27T23:38:35.309Z,2.28
2023-03-27T23:41:02.434Z,1.83
2023-03-27T23:43:30.287Z,1.98
2023-03-27T23:48:25.521Z,2.13
2023-03-27T23:50:52.472Z,2.72
2023-03-27T23:53:23.028Z,3.03
2023-03-27T23:55:49.656Z,1.98
2023-03-27T23:58:16.353Z,1.83
